KFDY

Findlay Airport

Findlay, Ohio, USA
KFDY 202336Z 2100/2124 VRB03KT P6SM SCT250 FM211500 07006KT P6SM BKN250
Issued Valid From Valid To
Apr-20 @ 23:36 UTC
(4 hours ago)
Apr-21 @ 00:00 UTC
(4 hours ago)
Apr-22 @ 00:00 UTC
(in 20 hours)
Apr-21 @ 00:00 to Apr-21 @ 15:00
KFDY 202336Z 2100/2124 VRB03KT P6SM SCT250
Wind Visibility Clouds
Variable at 3 knots Greater than 6 miles
  • Scattered at 25,000' AGL
From Apr-21 @ 15:00 to Apr-22 @ 00:00
FM211500 07006KT P6SM BKN250
Wind Visibility Clouds
70° at 6 knots Greater than 6 miles
  • Broken at 25,000' AGL
KFDY 202336Z 2100/2124 VRB03KT P6SM SCT250 FM211500 07006KT P6SM BKN250
Issued Apr-20 @ 23:36 UTC
(4 hours ago)
Valid From Apr-21 @ 00:00 UTC
(4 hours ago)
Valid To Apr-22 @ 00:00 UTC
(in 20 hours)
Apr-21 @ 00:00 - Apr-21 @ 15:00
Wind Visibility
Variable at 3 knots Greater than 6 miles
Clouds
  • Scattered at 25,000' AGL
From Apr-21 @ 15:00 - Apr-22 @ 00:00
Wind Visibility
70° at 6 knots Greater than 6 miles
Clouds
  • Broken at 25,000' AGL